Mc Faddin, Texas
Current Conditions -  °F | °C
As of 2:15 PM on Thursday 29 Jan 2015 (Local Time) from KPKV Reporting Station
Scattered Clouds Scattered Clouds  
Wind Chill: 73°   Ceiling: Unl
Heat Index: 73°   Visibility: 10mi
Dew Point: 60°   Wind: 5mph
Humidity: 63%   Direction: 170°S
Pressure: 30.21"   Gusts: NA
Location:  28.5526°N, 97.018°W
Report Text: KPKV 292015Z AUTO 17004KT 10SM SCT035 23/15 A3021 RMK AO2 T02280154
Loading
Personal Weather Stations






























Interactive Weather Map New forecast layout! Learn more

10-Day Weather Forecast

Advertisements
Track Severe Weather on mobile